Time;durP1;ratioP1;P1;durP2;ratioP2;P2;SDS_P1;SDS_P2;PMS_P1;PMS_P2;Temp;Humidity;BMP_temperature;BMP_pressure;BME280_temperature;BME280_humidity;BME280_pressure;Samples;Min_cycle;Max_cycle;Signal;HPM_P1;HPM_P2
2021/09/26 00:02:56;;;;;;;17.83;6.35;;;;;;;12.78;100.00;100555.66;6295615;28;20040;-72
2021/09/26 00:05:57;;;;;;;12.48;6.50;;;;;;;12.60;100.00;100559.44;6296637;28;20060;-72
2021/09/26 00:08:58;;;;;;;14.02;6.78;;;;;;;12.52;100.00;100559.06;6279948;28;20051;-72
2021/09/26 00:11:59;;;;;;;9.02;6.60;;;;;;;12.44;100.00;100555.16;6296505;28;20059;-71
2021/09/26 00:15:00;;;;;;;12.15;6.65;;;;;;;12.41;100.00;100559.72;6296316;28;20044;-71
2021/09/26 00:18:01;;;;;;;10.02;6.82;;;;;;;12.33;100.00;100543.63;6295742;28;20056;-71
2021/09/26 00:21:02;;;;;;;10.90;6.78;;;;;;;12.32;100.00;100547.19;6279587;28;20044;-72
2021/09/26 00:24:04;;;;;;;11.68;7.03;;;;;;;12.25;100.00;100547.56;6296189;28;20048;-71
2021/09/26 00:27:08;;;;;;;11.98;6.93;;;;;;;12.23;100.00;100545.97;6297297;28;20057;-71
2021/09/26 00:30:11;;;;;;;10.95;7.50;;;;;;;12.20;100.00;100546.16;6279944;28;20068;-71
2021/09/26 00:33:12;;;;;;;11.30;7.20;;;;;;;12.16;100.00;100542.03;6295892;28;20040;-71
2021/09/26 00:36:13;;;;;;;10.82;7.18;;;;;;;12.14;100.00;100538.69;6279284;28;20051;-70
2021/09/26 00:39:14;;;;;;;16.98;7.60;;;;;;;12.11;100.00;100539.72;6279122;28;20048;-71
2021/09/26 00:42:14;;;;;;;11.80;7.00;;;;;;;12.00;100.00;100542.94;6296844;28;20044;-70
2021/09/26 00:45:16;;;;;;;9.93;6.45;;;;;;;11.94;100.00;100535.44;6295588;28;20048;-70
2021/09/26 00:48:17;;;;;;;15.10;7.97;;;;;;;11.86;100.00;100543.75;6295911;28;20044;-71
2021/09/26 00:51:18;;;;;;;14.80;7.40;;;;;;;11.80;100.00;100540.66;6296811;28;20048;-71
2021/09/26 00:54:19;;;;;;;13.35;7.43;;;;;;;11.78;100.00;100545.13;6295455;28;20036;-71
2021/09/26 00:57:21;;;;;;;11.27;7.00;;;;;;;11.76;100.00;100550.44;6278676;28;20403;-71
2021/09/26 01:00:21;;;;;;;13.60;7.57;;;;;;;11.75;100.00;100556.56;6278731;28;20044;-71
2021/09/26 01:03:22;;;;;;;12.68;7.10;;;;;;;11.78;100.00;100559.03;6295508;28;20090;-71
2021/09/26 01:06:28;;;;;;;14.45;7.50;;;;;;;11.72;100.00;100554.16;6296423;28;20045;-70
2021/09/26 01:09:47;;;;;;;10.98;7.05;;;;;;;11.67;100.00;100554.44;6296634;28;20044;-70
2021/09/26 01:12:52;;;;;;;10.95;7.75;;;;;;;11.67;100.00;100551.81;6295200;28;20094;-70
2021/09/26 01:15:59;;;;;;;9.80;7.05;;;;;;;11.66;100.00;100549.28;6296449;28;20098;-70
2021/09/26 01:19:17;;;;;;;11.10;7.90;;;;;;;11.68;100.00;100547.41;6296577;28;20409;-70
2021/09/26 01:22:26;;;;;;;11.05;7.70;;;;;;;11.63;100.00;100550.31;6296322;28;20056;-71
2021/09/26 01:25:45;;;;;;;13.80;7.40;;;;;;;11.60;100.00;100554.84;6296235;28;20048;-70
2021/09/26 01:29:11;;;;;;;12.82;7.13;;;;;;;11.62;100.00;100546.00;6294288;28;20093;-71
2021/09/26 01:32:14;;;;;;;13.77;7.25;;;;;;;11.64;100.00;100549.38;6296194;28;20041;-71
2021/09/26 01:35:21;;;;;;;10.40;7.15;;;;;;;11.62;100.00;100547.78;6296171;28;20045;-71
2021/09/26 01:38:33;;;;;;;14.38;8.32;;;;;;;11.60;100.00;100555.69;6296219;28;20051;-70
2021/09/26 01:41:47;;;;;;;11.43;7.57;;;;;;;11.57;100.00;100553.28;6294818;28;20052;-70
2021/09/26 01:45:01;;;;;;;10.30;7.00;;;;;;;11.57;100.00;100555.88;6296191;28;20064;-70
2021/09/26 01:48:31;;;;;;;13.90;7.72;;;;;;;11.55;100.00;100554.25;6295966;28;20036;-70
2021/09/26 01:51:35;;;;;;;10.88;7.80;;;;;;;11.54;100.00;100550.81;6294583;28;20562;-71
2021/09/26 01:54:37;;;;;;;11.68;7.72;;;;;;;11.52;100.00;100559.69;6328315;28;20064;-70
2021/09/26 01:57:39;;;;;;;;;;;;;;;11.53;100.00;100561.34;6278703;28;20064;-71
2021/09/26 02:00:40;;;;;;;13.07;7.57;;;;;;;11.48;100.00;100565.06;6294677;28;20355;-71
2021/09/26 02:03:42;;;;;;;11.13;7.17;;;;;;;11.41;100.00;100557.69;6295838;28;20092;-70
2021/09/26 02:06:43;;;;;;;13.45;7.75;;;;;;;11.38;100.00;100552.63;6294659;28;20273;-71
2021/09/26 02:09:46;;;;;;;14.65;8.48;;;;;;;11.37;100.00;100559.63;6294674;28;20075;-71
2021/09/26 02:12:47;;;;;;;10.60;7.78;;;;;;;11.36;100.00;100562.31;6295566;28;20053;-70
2021/09/26 02:15:49;;;;;;;11.77;7.47;;;;;;;11.32;100.00;100553.78;6277795;28;20033;-70
2021/09/26 02:18:52;;;;;;;15.27;7.57;;;;;;;11.27;100.00;100556.66;6295653;28;20048;-71
2021/09/26 02:21:53;;;;;;;10.88;7.55;;;;;;;11.21;100.00;100553.56;6293465;28;20067;-70
2021/09/26 02:24:54;;;;;;;13.15;8.13;;;;;;;11.13;100.00;100559.22;6294504;28;20062;-71
2021/09/26 02:27:55;;;;;;;14.45;8.25;;;;;;;10.99;100.00;100548.69;6294042;28;20402;-72
2021/09/26 02:30:56;;;;;;;12.43;7.13;;;;;;;10.99;100.00;100559.97;6294340;28;20105;-71
2021/09/26 02:34:03;;;;;;;10.65;8.00;;;;;;;10.99;100.00;100561.72;6278408;28;20049;-72
2021/09/26 02:37:04;;;;;;;13.25;7.70;;;;;;;10.98;100.00;100565.28;6295615;28;20048;-71
2021/09/26 02:40:06;;;;;;;12.38;8.23;;;;;;;11.00;100.00;100572.09;6297740;28;20047;-71
2021/09/26 02:43:10;;;;;;;14.30;7.60;;;;;;;10.96;100.00;100567.13;6282080;28;20083;-71
2021/09/26 02:46:22;;;;;;;12.77;8.10;;;;;;;10.92;100.00;100576.06;6299649;28;20102;-70
2021/09/26 02:49:23;;;;;;;12.57;7.97;;;;;;;10.91;100.00;100574.38;6299651;28;20552;-71
2021/09/26 02:52:24;;;;;;;11.57;8.20;;;;;;;10.91;100.00;100576.97;6298376;28;20272;-71
2021/09/26 02:55:26;;;;;;;12.75;8.20;;;;;;;10.88;100.00;100578.81;6299406;28;20048;-71
2021/09/26 02:58:28;;;;;;;10.85;7.30;;;;;;;10.87;100.00;100579.75;6299195;28;20057;-74
2021/09/26 03:01:29;;;;;;;10.95;7.63;;;;;;;10.82;100.00;100579.16;6264993;28;20045;-74
2021/09/26 03:04:30;;;;;;;13.35;7.75;;;;;;;10.76;100.00;100589.09;6281889;28;20068;-73
2021/09/26 03:07:31;;;;;;;12.05;7.57;;;;;;;10.70;100.00;100587.63;6298028;28;20041;-74
2021/09/26 03:10:39;;;;;;;13.10;7.88;;;;;;;10.67;100.00;100582.59;6264709;28;20052;-73
2021/09/26 03:13:39;;;;;;;13.02;7.50;;;;;;;10.70;100.00;100587.63;6298046;28;20395;-73
2021/09/26 03:16:40;;;;;;;13.27;7.85;;;;;;;10.71;100.00;100585.88;6281272;28;20052;-74
2021/09/26 03:19:42;;;;;;;12.38;7.57;;;;;;;10.67;100.00;100596.47;6297748;28;20055;-74
2021/09/26 03:22:43;;;;;;;11.48;7.47;;;;;;;10.62;100.00;100590.66;6298866;28;20040;-74
2021/09/26 03:25:44;;;;;;;15.15;7.65;;;;;;;10.59;100.00;100583.00;6297420;28;20127;-74
2021/09/26 03:28:44;;;;;;;11.18;7.60;;;;;;;10.57;100.00;100581.38;6297578;28;20044;-74
2021/09/26 03:31:46;;;;;;;13.68;8.60;;;;;;;10.57;100.00;100589.22;6297997;28;20040;-74
2021/09/26 03:34:47;;;;;;;15.90;9.73;;;;;;;10.46;100.00;100592.41;6298843;28;20048;-74
2021/09/26 03:37:47;;;;;;;14.73;10.18;;;;;;;10.41;100.00;100590.00;6297364;28;20098;-74
2021/09/26 03:40:48;;;;;;;18.52;10.48;;;;;;;10.37;100.00;100596.31;6298426;28;20074;-74
2021/09/26 03:43:49;;;;;;;17.75;11.48;;;;;;;10.38;100.00;100590.19;6297178;28;20117;-74
2021/09/26 03:46:50;;;;;;;20.23;10.35;;;;;;;10.41;100.00;100597.81;6296930;28;20124;-74
2021/09/26 03:49:51;;;;;;;14.27;10.07;;;;;;;10.36;100.00;100592.03;6297155;28;20075;-74
2021/09/26 03:52:52;;;;;;;13.63;9.82;;;;;;;10.35;100.00;100590.31;6297424;28;20044;-74
2021/09/26 03:55:52;;;;;;;15.60;10.50;;;;;;;10.34;100.00;100593.03;6280303;28;20041;-74
2021/09/26 03:58:53;;;;;;;15.63;9.68;;;;;;;10.36;100.00;100585.97;6296567;28;20105;-74
2021/09/26 04:01:54;;;;;;;17.95;10.68;;;;;;;10.31;100.00;100586.19;6297743;28;20044;-74
2021/09/26 04:04:55;;;;;;;14.63;9.45;;;;;;;10.25;100.00;100586.47;6296726;28;20036;-74
2021/09/26 04:07:56;;;;;;;17.60;9.93;;;;;;;10.21;100.00;100577.97;6297716;28;20050;-74
2021/09/26 04:10:56;;;;;;;16.23;10.23;;;;;;;10.19;100.00;100579.81;6297693;28;20055;-74
2021/09/26 04:13:57;;;;;;;13.82;10.07;;;;;;;10.13;100.00;100584.47;6279846;28;20093;-70
2021/09/26 04:16:58;;;;;;;15.10;10.48;;;;;;;10.12;100.00;100582.81;6297165;28;20120;-71
2021/09/26 04:19:59;;;;;;;16.15;10.80;;;;;;;10.13;100.00;100589.69;6278722;28;20045;-71
2021/09/26 04:23:00;;;;;;;18.63;10.55;;;;;;;10.14;100.00;100592.22;6295049;28;20479;-70
2021/09/26 04:26:01;;;;;;;17.50;10.57;;;;;;;10.21;100.00;100584.94;6279439;28;20043;-72
2021/09/26 04:29:01;;;;;;;15.13;10.70;;;;;;;10.23;100.00;100593.53;6296154;28;20051;-72
2021/09/26 04:32:03;;;;;;;14.13;10.60;;;;;;;10.20;100.00;100588.47;6279379;28;20375;-71
2021/09/26 04:35:05;;;;;;;16.53;10.80;;;;;;;10.17;100.00;100593.84;6297194;28;20072;-71
2021/09/26 04:38:06;;;;;;;15.77;10.88;;;;;;;10.11;100.00;100597.63;6297106;28;20056;-71
2021/09/26 04:41:07;;;;;;;16.45;9.90;;;;;;;10.08;100.00;100589.94;6295771;28;20127;-70
2021/09/26 04:44:07;;;;;;;17.65;11.75;;;;;;;10.04;100.00;100596.22;6295715;28;20049;-70
2021/09/26 04:47:08;;;;;;;20.60;11.45;;;;;;;10.06;100.00;100595.22;6295523;28;20040;-70
2021/09/26 04:50:10;;;;;;;17.23;11.88;;;;;;;10.07;100.00;100596.09;6262544;28;20055;-74
2021/09/26 04:53:11;;;;;;;20.42;11.82;;;;;;;10.09;100.00;100596.84;6295545;28;20049;-73
2021/09/26 04:56:12;;;;;;;20.48;13.07;;;;;;;10.15;100.00;100595.69;6296627;28;20048;-73
2021/09/26 04:59:13;;;;;;;18.90;12.43;;;;;;;10.07;100.00;100590.88;6296713;28;20052;-73
2021/09/26 05:02:14;;;;;;;16.70;12.32;;;;;;;10.11;100.00;100602.84;6296329;28;20524;-74
2021/09/26 05:05:16;;;;;;;21.27;12.48;;;;;;;10.14;100.00;100607.88;6262019;28;20093;-73
2021/09/26 05:08:16;;;;;;;20.63;12.13;;;;;;;10.22;100.00;100607.50;6296558;28;20132;-74
2021/09/26 05:11:17;;;;;;;19.38;11.95;;;;;;;10.25;100.00;100602.97;6296513;28;20044;-73
2021/09/26 05:14:18;;;;;;;25.13;12.50;;;;;;;10.25;100.00;100604.72;6294973;28;20044;-73
2021/09/26 05:17:19;;;;;;;22.55;12.95;;;;;;;10.30;100.00;100604.53;6278486;28;20036;-73
2021/09/26 05:20:20;;;;;;;19.05;12.63;;;;;;;10.35;100.00;100610.34;6296236;28;20067;-73
2021/09/26 05:23:21;;;;;;;20.00;12.68;;;;;;;10.41;100.00;100615.25;6295074;28;20046;-73
2021/09/26 05:26:22;;;;;;;18.25;12.18;;;;;;;10.49;100.00;100615.69;6278105;28;20048;-73
2021/09/26 05:29:23;;;;;;;21.52;12.73;;;;;;;10.56;100.00;100614.44;6294783;28;20055;-74
2021/09/26 05:32:23;;;;;;;19.38;11.73;;;;;;;10.62;100.00;100614.13;6294992;28;20052;-74
2021/09/26 05:35:26;;;;;;;17.50;11.32;;;;;;;10.70;100.00;100621.56;6294712;28;20091;-73
2021/09/26 05:38:26;;;;;;;;;;;;;;;10.82;100.00;100618.31;6295366;28;20399;-74
2021/09/26 05:41:27;;;;;;;19.80;11.30;;;;;;;10.93;100.00;100616.91;6294750;28;19966;-74
2021/09/26 05:44:29;;;;;;;17.45;11.23;;;;;;;11.07;100.00;100617.84;6294826;28;20040;-74
2021/09/26 05:47:29;;;;;;;16.02;10.57;;;;;;;11.20;100.00;100628.47;6294697;28;20060;-74
2021/09/26 05:50:30;;;;;;;18.85;11.07;;;;;;;11.33;100.00;100627.81;6294507;28;20047;-73
2021/09/26 05:53:31;;;;;;;16.83;10.70;;;;;;;11.45;100.00;100629.75;6295687;28;20042;-73
2021/09/26 05:56:32;;;;;;;16.23;10.38;;;;;;;11.60;100.00;100641.13;6294099;28;20052;-73
2021/09/26 05:59:38;;;;;;;19.02;9.93;;;;;;;11.77;100.00;100638.38;6295665;28;20044;-73
2021/09/26 06:02:39;;;;;;;16.80;10.55;;;;;;;11.93;100.00;100635.78;6278439;28;20140;-73
2021/09/26 06:05:44;;;;;;;24.77;10.85;;;;;;;12.19;100.00;100638.63;6295773;28;20395;-73
2021/09/26 06:08:45;;;;;;;12.70;8.65;;;;;;;12.46;100.00;100637.03;6295580;28;20506;-73
2021/09/26 06:11:45;;;;;;;12.73;8.43;;;;;;;12.65;100.00;100641.16;6295632;28;20124;-73
2021/09/26 06:14:46;;;;;;;17.65;6.70;;;;;;;13.00;100.00;100638.16;6296389;28;20040;-73
2021/09/26 06:17:47;;;;;;;11.10;6.40;;;;;;;13.27;100.00;100638.22;6299015;28;20037;-73
2021/09/26 06:20:48;;;;;;;8.80;6.38;;;;;;;13.54;100.00;100645.31;6298948;28;20637;-73
2021/09/26 06:23:49;;;;;;;8.13;6.10;;;;;;;13.74;100.00;100644.03;6299891;28;20391;-74
2021/09/26 06:26:50;;;;;;;8.73;5.82;;;;;;;13.91;100.00;100635.88;6298046;28;20040;-74
2021/09/26 06:29:51;;;;;;;7.82;5.32;;;;;;;14.05;100.00;100641.06;6292385;28;20295;-75
2021/09/26 06:32:52;;;;;;;6.47;4.72;;;;;;;14.32;100.00;100648.88;6257202;28;20041;-75
2021/09/26 06:35:53;;;;;;;11.68;4.35;;;;;;;14.61;100.00;100653.13;6288644;28;20098;-75
2021/09/26 06:38:54;;;;;;;8.25;4.38;;;;;;;14.81;100.00;100652.59;6273796;28;20048;-74
2021/09/26 06:41:55;;;;;;;11.10;4.53;;;;;;;14.97;100.00;100652.38;6290174;28;20037;-75
2021/09/26 06:44:56;;;;;;;6.03;4.18;;;;;;;15.14;100.00;100656.47;6273602;28;20041;-75
2021/09/26 06:47:57;;;;;;;6.20;4.78;;;;;;;15.30;100.00;100653.59;6289715;28;20105;-74
2021/09/26 06:50:57;;;;;;;7.85;4.05;;;;;;;15.44;98.15;100648.19;6283757;28;20712;-75
2021/09/26 06:53:58;;;;;;;10.20;4.35;;;;;;;15.64;98.72;100648.50;6277022;28;20041;-75
2021/09/26 06:56:59;;;;;;;7.32;4.10;;;;;;;15.79;100.00;100651.84;6297069;28;20495;-74
2021/09/26 06:59:59;;;;;;;7.32;4.05;;;;;;;15.98;100.00;100654.81;6285260;28;20049;-75
2021/09/26 07:03:00;;;;;;;5.88;4.22;;;;;;;16.16;94.26;100660.47;6256707;28;20535;-75
2021/09/26 07:06:01;;;;;;;9.75;4.22;;;;;;;16.32;92.16;100660.16;6274439;28;20064;-72
2021/09/26 07:09:02;;;;;;;6.78;3.85;;;;;;;16.47;91.55;100660.78;6273281;28;20055;-72
2021/09/26 07:12:07;;;;;;;6.38;4.00;;;;;;;16.62;89.56;100664.91;6280108;28;20052;-72
2021/09/26 07:15:08;;;;;;;5.05;3.75;;;;;;;16.79;88.65;100666.22;6281561;28;20051;-72
2021/09/26 07:18:09;;;;;;;6.82;4.95;;;;;;;16.96;85.51;100669.41;6283298;28;20043;-72
2021/09/26 07:21:13;;;;;;;6.40;4.47;;;;;;;17.08;86.86;100664.00;6294998;28;20044;-72
2021/09/26 07:24:14;;;;;;;6.40;3.85;;;;;;;17.21;85.62;100665.66;6259315;28;20127;-71
2021/09/26 07:27:15;;;;;;;5.47;4.47;;;;;;;17.40;82.69;100671.16;6284386;28;20402;-72
2021/09/26 07:30:16;;;;;;;8.85;4.25;;;;;;;17.50;83.58;100668.59;6279924;28;20067;-72
2021/09/26 07:33:17;;;;;;;8.40;3.88;;;;;;;17.66;80.75;100671.69;6294641;28;20483;-72
2021/09/26 07:36:18;;;;;;;5.45;3.58;;;;;;;17.84;79.64;100671.19;6254876;28;20053;-72
2021/09/26 07:39:18;;;;;;;5.13;3.65;;;;;;;17.99;78.17;100675.19;6280716;28;20060;-72
2021/09/26 07:42:19;;;;;;;4.57;3.80;;;;;;;18.19;77.31;100670.09;6279515;28;20048;-72
2021/09/26 07:45:20;;;;;;;8.70;4.10;;;;;;;18.49;80.59;100672.81;6296080;28;20048;-72
2021/09/26 07:48:21;;;;;;;8.87;3.73;;;;;;;18.57;75.12;100671.31;6262898;28;20089;-75
2021/09/26 07:51:22;;;;;;;7.28;3.65;;;;;;;18.68;75.75;100673.88;6296265;28;20454;-75
2021/09/26 07:54:23;;;;;;;5.80;3.40;;;;;;;18.85;73.90;100672.47;6279464;28;20091;-75
2021/09/26 07:57:24;;;;;;;6.17;3.93;;;;;;;19.00;73.24;100672.94;6296896;28;20060;-75
2021/09/26 08:00:25;;;;;;;4.50;3.70;;;;;;;19.21;70.62;100670.22;6296833;28;20102;-75
2021/09/26 08:03:26;;;;;;;5.28;3.60;;;;;;;19.23;72.07;100677.06;6295545;28;20072;-75
2021/09/26 08:06:27;;;;;;;10.37;5.33;;;;;;;19.43;70.84;100677.13;6295641;28;20116;-75
2021/09/26 08:09:28;;;;;;;12.65;9.32;;;;;;;19.47;68.08;100682.00;6312605;28;20293;-75
2021/09/26 08:12:28;;;;;;;7.82;5.38;;;;;;;19.61;68.75;100672.84;6296753;28;20051;-75
2021/09/26 08:15:30;;;;;;;5.83;3.60;;;;;;;19.81;69.79;100673.72;6296482;28;20043;-75
2021/09/26 08:18:31;;;;;;;6.45;3.50;;;;;;;20.03;66.70;100675.25;6296548;28;20487;-72
2021/09/26 08:21:32;;;;;;;5.03;3.57;;;;;;;20.16;66.62;100672.34;6295103;28;20040;-72
2021/09/26 08:24:34;;;;;;;6.70;3.70;;;;;;;20.32;65.86;100677.91;6296475;28;20135;-72
2021/09/26 08:27:36;;;;;;;13.07;3.90;;;;;;;20.37;67.31;100660.75;6296591;28;20049;-71
2021/09/26 08:30:37;;;;;;;;;;;;;;;20.59;62.75;100668.41;6295497;28;20041;-72
2021/09/26 08:33:38;;;;;;;3.75;2.90;;;;;;;20.67;62.88;100667.66;6296083;28;19956;-72
2021/09/26 08:36:39;;;;;;;3.90;3.07;;;;;;;20.86;63.05;100670.25;6277874;28;20051;-71
2021/09/26 08:39:40;;;;;;;3.57;2.90;;;;;;;20.94;62.33;100664.22;6311705;28;20144;-75
2021/09/26 08:42:41;;;;;;;9.03;3.30;;;;;;;21.07;62.28;100662.06;6294623;28;20051;-76
2021/09/26 08:45:42;;;;;;;5.57;3.10;;;;;;;21.26;60.12;100657.63;6295857;28;20047;-75
2021/09/26 08:48:43;;;;;;;7.20;3.17;;;;;;;21.40;63.76;100651.00;6294652;28;20041;-75
2021/09/26 08:51:46;;;;;;;4.35;3.00;;;;;;;21.58;62.23;100653.69;6295723;28;20048;-75
2021/09/26 08:54:49;;;;;;;4.95;3.15;;;;;;;21.61;59.57;100651.56;6294666;28;20075;-75
2021/09/26 08:57:49;;;;;;;5.03;3.20;;;;;;;21.77;58.62;100655.38;6277948;28;20060;-74
2021/09/26 09:00:51;;;;;;;9.03;3.57;;;;;;;22.03;59.87;100645.66;6295550;28;20040;-75
2021/09/26 09:03:51;;;;;;;5.38;3.10;;;;;;;22.22;58.24;100652.59;6294385;28;20120;-75
2021/09/26 09:07:02;;;;;;;5.07;3.30;;;;;;;22.36;55.78;100645.06;6294464;28;20066;-75
2021/09/26 09:10:03;;;;;;;5.20;3.00;;;;;;;22.47;55.11;100648.31;6295546;28;20040;-75
2021/09/26 09:13:06;;;;;;;7.75;3.33;;;;;;;22.36;55.17;100635.28;6295539;28;20048;-75
2021/09/26 09:16:11;;;;;;;5.00;3.33;;;;;;;22.35;54.57;100630.97;6295379;28;20119;-75
2021/09/26 09:19:21;;;;;;;6.05;3.25;;;;;;;22.60;59.88;100637.25;6295369;28;20411;-75
2021/09/26 09:22:28;;;;;;;5.95;3.17;;;;;;;22.91;59.61;100636.75;6293923;28;20445;-75
2021/09/26 09:25:46;;;;;;;3.72;3.10;;;;;;;23.19;53.69;100648.03;6295409;28;20044;-75
2021/09/26 09:28:48;;;;;;;5.28;3.00;;;;;;;23.36;53.74;100640.09;6295160;28;20045;-75
2021/09/26 09:31:52;;;;;;;6.55;3.50;;;;;;;23.58;54.15;100638.66;6290325;28;20439;-76
2021/09/26 09:34:53;;;;;;;6.95;3.28;;;;;;;23.67;53.89;100635.00;6276225;28;20029;-75
2021/09/26 09:37:53;;;;;;;5.80;3.20;;;;;;;23.46;52.99;100635.47;6288119;28;20119;-75
2021/09/26 09:40:58;;;;;;;3.37;3.00;;;;;;;23.56;53.76;100640.66;6291684;28;20260;-75
2021/09/26 09:43:59;;;;;;;4.88;3.17;;;;;;;23.83;54.69;100631.53;6269117;28;20033;-75
2021/09/26 09:47:00;;;;;;;8.87;3.47;;;;;;;24.08;51.71;100629.69;6274644;28;20574;-75
2021/09/26 09:50:00;;;;;;;6.10;3.33;;;;;;;24.21;52.37;100618.53;6291854;28;20273;-75
2021/09/26 09:53:01;;;;;;;7.10;3.50;;;;;;;24.25;50.60;100623.34;6284370;28;20045;-75
2021/09/26 09:56:08;;;;;;;4.68;3.00;;;;;;;24.42;49.54;100623.31;6241220;28;20037;-76
2021/09/26 09:59:11;;;;;;;8.15;3.10;;;;;;;24.31;50.63;100622.66;6279335;28;20419;-75
2021/09/26 10:02:13;;;;;;;6.88;3.75;;;;;;;24.43;49.55;100617.81;6298515;28;20036;-75
2021/09/26 10:05:33;;;;;;;8.20;3.58;;;;;;;24.70;49.64;100618.44;6281987;28;20509;-76
2021/09/26 10:08:34;;;;;;;6.32;3.75;;;;;;;24.69;48.67;100622.13;6298407;28;20071;-76
2021/09/26 10:11:42;;;;;;;8.30;3.03;;;;;;;24.89;47.87;100618.03;6299636;28;20487;-76
2021/09/26 10:14:43;;;;;;;4.90;2.75;;;;;;;24.94;48.11;100605.00;6299519;28;20064;-76
2021/09/26 10:17:44;;;;;;;6.78;3.20;;;;;;;24.73;48.19;100599.44;6248076;28;20053;-75
2021/09/26 10:20:45;;;;;;;4.93;3.22;;;;;;;24.89;52.62;100601.19;6274539;28;20482;-74
2021/09/26 10:23:47;;;;;;;4.63;3.40;;;;;;;24.86;48.57;100606.88;6289832;28;20186;-74
2021/09/26 10:26:48;;;;;;;4.60;2.63;;;;;;;24.93;48.44;100603.34;6273398;28;20309;-74
2021/09/26 10:30:04;;;;;;;6.25;2.85;;;;;;;25.27;48.92;100604.03;6273268;28;20051;-75
2021/09/26 10:33:07;;;;;;;4.85;3.00;;;;;;;25.47;47.92;100593.69;6274366;28;20049;-75
2021/09/26 10:36:09;;;;;;;;;;;;;;;25.49;47.91;100605.88;6307073;28;20045;-73
2021/09/26 10:39:11;;;;;;;4.20;3.00;;;;;;;25.68;47.85;100595.72;6273113;28;20279;-72
2021/09/26 10:42:13;;;;;;;;;;;;;;;25.82;46.81;100594.09;6306741;28;20542;-71
2021/09/26 10:45:25;;;;;;;5.85;2.45;;;;;;;25.95;45.88;100596.22;6274091;28;19927;-72
2021/09/26 10:49:05;;;;;;;4.53;2.80;;;;;;;25.72;44.48;100586.34;6274232;28;20037;-72
2021/09/26 10:52:37;;;;;;;8.15;2.75;;;;;;;25.69;45.80;100584.00;6273761;28;20048;-75
2021/09/26 10:55:40;;;;;;;4.40;2.72;;;;;;;25.84;48.05;100574.22;6278950;28;20068;-73
2021/09/26 10:58:56;;;;;;;4.55;3.40;;;;;;;25.96;44.77;100581.81;6272126;28;20438;-73
2021/09/26 11:01:56;;;;;;;9.18;3.10;;;;;;;25.56;44.50;100567.78;6273294;28;20086;-76
2021/09/26 11:04:59;;;;;;;4.87;2.70;;;;;;;25.48;46.20;100568.66;6255868;28;20048;-75
2021/09/26 11:08:01;;;;;;;6.05;3.60;;;;;;;25.48;45.76;100558.78;6273456;28;20044;-76
2021/09/26 11:11:04;;;;;;;3.53;3.08;;;;;;;25.74;47.94;100557.59;6288673;28;20045;-76
2021/09/26 11:14:07;;;;;;;8.80;6.53;;;;;;;26.09;48.10;100545.44;6273389;28;20167;-73
2021/09/26 11:17:08;;;;;;;8.85;4.50;;;;;;;26.29;44.99;100544.88;6273103;28;20048;-72
2021/09/26 11:20:10;;;;;;;6.75;3.40;;;;;;;26.35;45.01;100552.16;6271940;28;20041;-72
2021/09/26 11:23:17;;;;;;;9.95;3.50;;;;;;;26.33;45.91;100546.97;6272914;28;20044;-73
2021/09/26 11:26:18;;;;;;;8.50;3.30;;;;;;;26.33;43.28;100549.66;6273456;28;20534;-73
2021/09/26 11:29:19;;;;;;;4.10;2.88;;;;;;;26.37;43.62;100555.47;6255573;28;20053;-73
2021/09/26 11:32:23;;;;;;;7.22;2.83;;;;;;;26.46;44.02;100548.16;6271384;28;20044;-73
2021/09/26 11:35:27;;;;;;;4.63;2.70;;;;;;;26.44;44.17;100545.72;6286210;28;20063;-73
2021/09/26 11:38:36;;;;;;;5.55;2.25;;;;;;;26.36;42.41;100536.94;6297391;28;20041;-72
2021/09/26 11:41:37;;;;;;;7.18;2.80;;;;;;;26.36;44.63;100532.44;6296141;28;20079;-75
2021/09/26 11:44:49;;;;;;;11.20;2.83;;;;;;;26.39;46.50;100529.38;6295589;28;20062;-75
2021/09/26 11:48:01;;;;;;;3.63;2.58;;;;;;;26.23;47.11;100525.06;6271182;28;20073;-75
2021/09/26 11:51:09;;;;;;;5.38;2.85;;;;;;;25.66;45.68;100518.41;6254718;28;20049;-75
2021/09/26 11:54:11;;;;;;;3.38;2.45;;;;;;;25.93;44.47;100516.19;6272381;28;20491;-75
2021/09/26 11:57:12;;;;;;;7.72;2.88;;;;;;;26.21;44.32;100512.88;6254434;28;20387;-79
2021/09/26 12:00:24;;;;;;;;;;;;;;;26.46;43.71;100511.56;6255044;28;20090;-75
2021/09/26 12:03:27;;;;;;;7.13;2.92;;;;;;;26.58;42.10;100509.25;6271098;28;19928;-72
2021/09/26 12:06:28;;;;;;;3.58;2.20;;;;;;;26.51;45.02;100505.66;6295611;28;20040;-72
2021/09/26 12:09:42;;;;;;;10.90;2.95;;;;;;;26.28;44.06;100493.22;6296752;28;20043;-75
2021/09/26 12:12:43;;;;;;;6.97;2.70;;;;;;;26.33;45.65;100493.47;6294889;28;20044;-75
2021/09/26 12:15:45;;;;;;;5.63;2.97;;;;;;;26.41;44.21;100489.06;6262735;28;20080;-75
2021/09/26 12:18:55;;;;;;;4.97;2.70;;;;;;;26.52;46.42;100492.09;6262165;28;20060;-72
2021/09/26 12:22:04;;;;;;;4.97;2.75;;;;;;;26.54;45.00;100492.75;6296354;28;20036;-74
2021/09/26 12:25:33;;;;;;;6.35;2.90;;;;;;;26.41;45.51;100486.38;6296436;28;20040;-74
2021/09/26 12:28:35;;;;;;;3.88;2.53;;;;;;;26.34;44.91;100487.13;6293390;28;20056;-72
2021/09/26 12:31:37;;;;;;;4.50;2.40;;;;;;;26.07;43.36;100475.25;6295089;28;20060;-75
2021/09/26 12:34:45;;;;;;;2.88;2.10;;;;;;;25.97;46.86;100465.88;6294979;28;20040;-72
2021/09/26 12:37:53;;;;;;;4.78;2.60;;;;;;;26.20;44.31;100468.44;6295037;28;20502;-74
2021/09/26 12:41:19;;;;;;;6.50;2.50;;;;;;;26.34;43.05;100464.91;6294840;28;20498;-72
2021/09/26 12:44:30;;;;;;;5.03;2.47;;;;;;;26.29;44.18;100462.78;6283073;28;20053;-72
2021/09/26 12:47:31;;;;;;;8.38;2.55;;;;;;;26.31;45.30;100458.06;6253616;28;20083;-75
2021/09/26 12:50:32;;;;;;;4.45;2.60;;;;;;;26.19;44.62;100454.25;6303254;28;20041;-72
2021/09/26 12:53:39;;;;;;;7.90;2.63;;;;;;;26.27;44.82;100456.78;6271111;28;20067;-72
2021/09/26 12:56:44;;;;;;;5.90;2.47;;;;;;;26.33;45.66;100444.50;6270141;28;20078;-72
2021/09/26 12:59:49;;;;;;;5.85;2.53;;;;;;;26.32;43.31;100450.91;6270935;28;20049;-72
2021/09/26 13:02:56;;;;;;;5.75;2.33;;;;;;;26.24;44.38;100434.94;6253585;28;20045;-75
2021/09/26 13:06:01;;;;;;;4.68;2.50;;;;;;;26.11;45.41;100441.78;6269624;28;20036;-75
2021/09/26 13:09:25;;;;;;;6.50;2.50;;;;;;;26.16;45.70;100445.75;6270658;28;20094;-73
2021/09/26 13:12:36;;;;;;;3.30;2.17;;;;;;;26.26;42.90;100440.94;6270587;28;20041;-72
2021/09/26 13:15:38;;;;;;;6.90;2.58;;;;;;;26.23;44.73;100435.94;6270614;28;20082;-72
2021/09/26 13:18:39;;;;;;;3.75;2.40;;;;;;;26.13;43.65;100441.59;6285981;28;20045;-72
2021/09/26 13:21:40;;;;;;;3.28;2.20;;;;;;;26.11;46.54;100436.44;6302718;28;20099;-72
2021/09/26 13:24:47;;;;;;;5.88;2.53;;;;;;;26.01;45.32;100427.88;6269235;28;20443;-73
2021/09/26 13:27:55;;;;;;;4.38;2.80;;;;;;;25.80;47.32;100425.91;6270578;28;20408;-70
2021/09/26 13:31:11;;;;;;;6.45;2.78;;;;;;;25.57;45.53;100420.63;6270557;28;20041;-75
2021/09/26 13:34:12;;;;;;;5.85;2.25;;;;;;;25.33;44.80;100422.53;6269096;28;20127;-71
2021/09/26 13:37:20;;;;;;;4.55;2.85;;;;;;;25.29;45.58;100402.56;6269140;28;20041;-74
2021/09/26 13:40:23;;;;;;;5.68;2.63;;;;;;;25.22;46.56;100411.47;6269235;28;20134;-71
2021/09/26 13:43:36;;;;;;;4.63;2.78;;;;;;;25.23;46.65;100407.78;6270177;28;20041;-74
2021/09/26 13:46:38;;;;;;;4.15;2.38;;;;;;;25.38;45.94;100402.47;6270094;28;20041;-72
2021/09/26 13:49:39;;;;;;;4.57;2.38;;;;;;;25.25;49.42;100406.59;6270187;28;20462;-75
2021/09/26 13:52:40;;;;;;;4.38;2.72;;;;;;;25.19;45.97;100395.78;6292257;28;20506;-75
2021/09/26 13:55:41;;;;;;;4.23;2.47;;;;;;;25.00;46.12;100394.41;6277111;28;20076;-75
2021/09/26 13:58:42;;;;;;;4.10;2.40;;;;;;;24.91;47.39;100394.50;6293602;28;20395;-75
2021/09/26 14:01:43;;;;;;;9.25;2.38;;;;;;;24.83;48.40;100391.91;6277378;28;20106;-75
2021/09/26 14:04:45;;;;;;;3.78;2.70;;;;;;;24.83;49.91;100397.25;6293802;28;20373;-74